sensor_id;sensor_type;location;lat;lon;timestamp;P1;durP1;ratioP1;P2;durP2;ratioP2
57726;SDS011;43568;43.180;-0.028;2022-08-14T00:00:23;4.28;;;3.88;;
57726;SDS011;43568;43.180;-0.028;2022-08-14T00:02:50;4.55;;;3.58;;
57726;SDS011;43568;43.180;-0.028;2022-08-14T00:05:17;2.83;;;2.63;;
57726;SDS011;43568;43.180;-0.028;2022-08-14T00:07:44;2.25;;;2.15;;
57726;SDS011;43568;43.180;-0.028;2022-08-14T00:10:12;2.75;;;2.55;;
57726;SDS011;43568;43.180;-0.028;2022-08-14T00:12:39;2.45;;;2.35;;
57726;SDS011;43568;43.180;-0.028;2022-08-14T00:15:11;3.17;;;2.97;;
57726;SDS011;43568;43.180;-0.028;2022-08-14T00:17:37;2.53;;;2.40;;
57726;SDS011;43568;43.180;-0.028;2022-08-14T00:20:04;3.10;;;2.88;;
57726;SDS011;43568;43.180;-0.028;2022-08-14T00:24:57;2.55;;;2.45;;
57726;SDS011;43568;43.180;-0.028;2022-08-14T00:27:23;2.65;;;2.55;;
57726;SDS011;43568;43.180;-0.028;2022-08-14T00:29:49;2.10;;;2.00;;
57726;SDS011;43568;43.180;-0.028;2022-08-14T00:32:15;2.42;;;2.22;;
57726;SDS011;43568;43.180;-0.028;2022-08-14T00:34:41;2.20;;;2.10;;
57726;SDS011;43568;43.180;-0.028;2022-08-14T00:37:07;1.80;;;1.80;;
57726;SDS011;43568;43.180;-0.028;2022-08-14T00:39:33;2.70;;;2.60;;
57726;SDS011;43568;43.180;-0.028;2022-08-14T00:41:59;2.42;;;2.25;;
57726;SDS011;43568;43.180;-0.028;2022-08-14T00:44:25;1.92;;;1.92;;
57726;SDS011;43568;43.180;-0.028;2022-08-14T00:46:53;2.08;;;1.98;;
57726;SDS011;43568;43.180;-0.028;2022-08-14T00:49:19;2.53;;;2.42;;
57726;SDS011;43568;43.180;-0.028;2022-08-14T00:51:46;2.70;;;2.60;;
57726;SDS011;43568;43.180;-0.028;2022-08-14T00:54:12;2.83;;;2.72;;
57726;SDS011;43568;43.180;-0.028;2022-08-14T00:56:40;2.53;;;2.03;;
57726;SDS011;43568;43.180;-0.028;2022-08-14T00:59:06;3.10;;;3.00;;
57726;SDS011;43568;43.180;-0.028;2022-08-14T01:01:33;3.38;;;3.17;;
57726;SDS011;43568;43.180;-0.028;2022-08-14T01:04:01;2.20;;;2.08;;
57726;SDS011;43568;43.180;-0.028;2022-08-14T01:06:27;2.97;;;2.78;;
57726;SDS011;43568;43.180;-0.028;2022-08-14T01:08:56;2.83;;;2.72;;
57726;SDS011;43568;43.180;-0.028;2022-08-14T01:13:49;2.83;;;2.63;;
57726;SDS011;43568;43.180;-0.028;2022-08-14T01:16:16;2.50;;;2.30;;
57726;SDS011;43568;43.180;-0.028;2022-08-14T01:18:44;1.80;;;1.70;;
57726;SDS011;43568;43.180;-0.028;2022-08-14T01:21:34;2.75;;;2.45;;
57726;SDS011;43568;43.180;-0.028;2022-08-14T01:24:00;2.03;;;1.92;;
57726;SDS011;43568;43.180;-0.028;2022-08-14T01:26:26;3.40;;;2.40;;
57726;SDS011;43568;43.180;-0.028;2022-08-14T01:28:54;2.60;;;2.42;;
57726;SDS011;43568;43.180;-0.028;2022-08-14T01:31:22;1.90;;;1.80;;
57726;SDS011;43568;43.180;-0.028;2022-08-14T01:33:49;1.98;;;1.88;;
57726;SDS011;43568;43.180;-0.028;2022-08-14T01:36:16;4.07;;;2.87;;
57726;SDS011;43568;43.180;-0.028;2022-08-14T01:38:44;2.35;;;2.25;;
57726;SDS011;43568;43.180;-0.028;2022-08-14T01:41:13;1.85;;;1.85;;
57726;SDS011;43568;43.180;-0.028;2022-08-14T01:43:43;1.80;;;1.80;;
57726;SDS011;43568;43.180;-0.028;2022-08-14T01:46:12;1.77;;;1.77;;
57726;SDS011;43568;43.180;-0.028;2022-08-14T01:48:38;2.05;;;1.95;;
57726;SDS011;43568;43.180;-0.028;2022-08-14T01:51:08;2.55;;;2.45;;
57726;SDS011;43568;43.180;-0.028;2022-08-14T01:53:35;1.80;;;1.80;;
57726;SDS011;43568;43.180;-0.028;2022-08-14T01:56:02;2.70;;;2.15;;
57726;SDS011;43568;43.180;-0.028;2022-08-14T01:58:29;1.75;;;1.75;;
57726;SDS011;43568;43.180;-0.028;2022-08-14T02:00:55;1.65;;;1.65;;
57726;SDS011;43568;43.180;-0.028;2022-08-14T02:03:26;1.58;;;1.58;;
57726;SDS011;43568;43.180;-0.028;2022-08-14T02:05:58;1.70;;;1.65;;
57726;SDS011;43568;43.180;-0.028;2022-08-14T02:08:28;1.70;;;1.70;;
57726;SDS011;43568;43.180;-0.028;2022-08-14T02:10:55;1.90;;;1.90;;
57726;SDS011;43568;43.180;-0.028;2022-08-14T02:13:40;1.73;;;1.73;;
57726;SDS011;43568;43.180;-0.028;2022-08-14T02:16:08;5.35;;;3.05;;
57726;SDS011;43568;43.180;-0.028;2022-08-14T02:18:34;1.50;;;1.50;;
57726;SDS011;43568;43.180;-0.028;2022-08-14T02:21:00;2.10;;;2.00;;
57726;SDS011;43568;43.180;-0.028;2022-08-14T02:23:28;1.52;;;1.52;;
57726;SDS011;43568;43.180;-0.028;2022-08-14T02:25:54;1.80;;;1.80;;
57726;SDS011;43568;43.180;-0.028;2022-08-14T02:28:20;2.30;;;2.20;;
57726;SDS011;43568;43.180;-0.028;2022-08-14T02:30:47;2.00;;;1.90;;
57726;SDS011;43568;43.180;-0.028;2022-08-14T02:33:13;2.70;;;2.60;;
57726;SDS011;43568;43.180;-0.028;2022-08-14T02:35:40;2.13;;;2.03;;
57726;SDS011;43568;43.180;-0.028;2022-08-14T02:38:07;3.22;;;3.03;;
57726;SDS011;43568;43.180;-0.028;2022-08-14T02:40:34;2.33;;;2.22;;
57726;SDS011;43568;43.180;-0.028;2022-08-14T02:45:28;1.80;;;1.80;;
57726;SDS011;43568;43.180;-0.028;2022-08-14T02:47:57;2.10;;;2.05;;
57726;SDS011;43568;43.180;-0.028;2022-08-14T02:50:23;2.78;;;2.67;;
57726;SDS011;43568;43.180;-0.028;2022-08-14T02:52:49;2.28;;;2.15;;
57726;SDS011;43568;43.180;-0.028;2022-08-14T02:55:15;2.55;;;2.35;;
57726;SDS011;43568;43.180;-0.028;2022-08-14T02:57:41;1.63;;;1.63;;
57726;SDS011;43568;43.180;-0.028;2022-08-14T03:00:08;1.65;;;1.65;;
57726;SDS011;43568;43.180;-0.028;2022-08-14T03:02:36;2.10;;;2.00;;
57726;SDS011;43568;43.180;-0.028;2022-08-14T03:05:02;2.53;;;2.42;;
57726;SDS011;43568;43.180;-0.028;2022-08-14T03:07:28;1.75;;;1.75;;
57726;SDS011;43568;43.180;-0.028;2022-08-14T03:09:54;2.20;;;2.10;;
57726;SDS011;43568;43.180;-0.028;2022-08-14T03:12:20;2.42;;;2.33;;
57726;SDS011;43568;43.180;-0.028;2022-08-14T03:14:47;2.70;;;2.50;;
57726;SDS011;43568;43.180;-0.028;2022-08-14T03:17:15;1.90;;;1.90;;
57726;SDS011;43568;43.180;-0.028;2022-08-14T03:19:41;3.55;;;3.35;;
57726;SDS011;43568;43.180;-0.028;2022-08-14T03:22:07;3.45;;;3.00;;
57726;SDS011;43568;43.180;-0.028;2022-08-14T03:24:34;2.97;;;2.78;;
57726;SDS011;43568;43.180;-0.028;2022-08-14T03:27:03;3.10;;;2.80;;
57726;SDS011;43568;43.180;-0.028;2022-08-14T03:29:31;2.30;;;2.20;;
57726;SDS011;43568;43.180;-0.028;2022-08-14T03:31:57;3.35;;;3.15;;
57726;SDS011;43568;43.180;-0.028;2022-08-14T03:34:23;3.15;;;2.95;;
57726;SDS011;43568;43.180;-0.028;2022-08-14T03:36:50;6.05;;;3.13;;
57726;SDS011;43568;43.180;-0.028;2022-08-14T03:39:21;2.65;;;2.45;;
57726;SDS011;43568;43.180;-0.028;2022-08-14T03:41:48;3.85;;;3.65;;
57726;SDS011;43568;43.180;-0.028;2022-08-14T03:44:14;2.30;;;2.20;;
57726;SDS011;43568;43.180;-0.028;2022-08-14T03:46:40;2.42;;;2.33;;
57726;SDS011;43568;43.180;-0.028;2022-08-14T03:49:07;3.33;;;3.13;;
57726;SDS011;43568;43.180;-0.028;2022-08-14T03:51:34;3.20;;;3.10;;
57726;SDS011;43568;43.180;-0.028;2022-08-14T03:54:03;2.22;;;2.15;;
57726;SDS011;43568;43.180;-0.028;2022-08-14T03:56:31;3.15;;;2.95;;
57726;SDS011;43568;43.180;-0.028;2022-08-14T03:58:58;2.35;;;2.25;;
57726;SDS011;43568;43.180;-0.028;2022-08-14T04:01:26;2.55;;;2.45;;
57726;SDS011;43568;43.180;-0.028;2022-08-14T04:03:52;2.67;;;2.58;;
57726;SDS011;43568;43.180;-0.028;2022-08-14T04:06:19;3.17;;;2.97;;
57726;SDS011;43568;43.180;-0.028;2022-08-14T04:08:46;2.75;;;2.65;;
57726;SDS011;43568;43.180;-0.028;2022-08-14T04:11:13;3.30;;;3.10;;
57726;SDS011;43568;43.180;-0.028;2022-08-14T04:13:40;2.65;;;2.53;;
57726;SDS011;43568;43.180;-0.028;2022-08-14T04:16:08;2.83;;;2.73;;
57726;SDS011;43568;43.180;-0.028;2022-08-14T04:18:38;3.00;;;2.80;;
57726;SDS011;43568;43.180;-0.028;2022-08-14T04:21:05;3.85;;;3.55;;
57726;SDS011;43568;43.180;-0.028;2022-08-14T04:23:32;2.95;;;2.75;;
57726;SDS011;43568;43.180;-0.028;2022-08-14T04:28:25;8.68;;;3.33;;
57726;SDS011;43568;43.180;-0.028;2022-08-14T04:30:51;4.85;;;4.38;;
57726;SDS011;43568;43.180;-0.028;2022-08-14T04:33:17;4.63;;;4.32;;
57726;SDS011;43568;43.180;-0.028;2022-08-14T04:35:43;3.78;;;3.45;;
57726;SDS011;43568;43.180;-0.028;2022-08-14T04:38:09;4.50;;;4.18;;
57726;SDS011;43568;43.180;-0.028;2022-08-14T04:40:54;3.92;;;3.72;;
57726;SDS011;43568;43.180;-0.028;2022-08-14T04:43:39;5.07;;;4.57;;
57726;SDS011;43568;43.180;-0.028;2022-08-14T04:48:34;3.25;;;2.97;;
57726;SDS011;43568;43.180;-0.028;2022-08-14T04:51:02;3.78;;;3.58;;
57726;SDS011;43568;43.180;-0.028;2022-08-14T04:53:29;2.92;;;2.78;;
57726;SDS011;43568;43.180;-0.028;2022-08-14T04:55:55;6.32;;;4.55;;
57726;SDS011;43568;43.180;-0.028;2022-08-14T04:58:22;3.72;;;3.53;;
57726;SDS011;43568;43.180;-0.028;2022-08-14T05:00:50;4.43;;;4.03;;
57726;SDS011;43568;43.180;-0.028;2022-08-14T05:03:17;5.13;;;4.60;;
57726;SDS011;43568;43.180;-0.028;2022-08-14T05:05:45;5.72;;;5.18;;
57726;SDS011;43568;43.180;-0.028;2022-08-14T05:08:11;3.97;;;3.57;;
57726;SDS011;43568;43.180;-0.028;2022-08-14T05:10:42;3.83;;;3.60;;
57726;SDS011;43568;43.180;-0.028;2022-08-14T05:13:09;4.03;;;3.72;;
57726;SDS011;43568;43.180;-0.028;2022-08-14T05:15:35;4.43;;;4.05;;
57726;SDS011;43568;43.180;-0.028;2022-08-14T05:18:24;4.60;;;4.25;;
57726;SDS011;43568;43.180;-0.028;2022-08-14T05:20:49;6.95;;;5.50;;
57726;SDS011;43568;43.180;-0.028;2022-08-14T05:23:16;5.43;;;4.93;;
57726;SDS011;43568;43.180;-0.028;2022-08-14T05:25:43;5.20;;;4.18;;
57726;SDS011;43568;43.180;-0.028;2022-08-14T05:28:11;4.75;;;4.30;;
57726;SDS011;43568;43.180;-0.028;2022-08-14T05:30:41;3.17;;;2.90;;
57726;SDS011;43568;43.180;-0.028;2022-08-14T05:33:08;4.00;;;3.65;;
57726;SDS011;43568;43.180;-0.028;2022-08-14T05:35:34;5.32;;;4.68;;
57726;SDS011;43568;43.180;-0.028;2022-08-14T05:38:06;4.20;;;3.78;;
57726;SDS011;43568;43.180;-0.028;2022-08-14T05:40:32;4.63;;;4.22;;
57726;SDS011;43568;43.180;-0.028;2022-08-14T05:42:59;4.15;;;3.17;;
57726;SDS011;43568;43.180;-0.028;2022-08-14T05:45:25;5.95;;;3.97;;
57726;SDS011;43568;43.180;-0.028;2022-08-14T05:47:51;4.47;;;3.67;;
57726;SDS011;43568;43.180;-0.028;2022-08-14T05:50:17;4.07;;;3.78;;
57726;SDS011;43568;43.180;-0.028;2022-08-14T05:52:43;3.72;;;3.47;;
57726;SDS011;43568;43.180;-0.028;2022-08-14T05:55:10;6.75;;;4.78;;
57726;SDS011;43568;43.180;-0.028;2022-08-14T05:57:46;4.50;;;4.20;;
57726;SDS011;43568;43.180;-0.028;2022-08-14T06:00:13;4.95;;;4.55;;
57726;SDS011;43568;43.180;-0.028;2022-08-14T06:02:39;2.83;;;2.70;;
57726;SDS011;43568;43.180;-0.028;2022-08-14T06:05:05;5.28;;;4.85;;
57726;SDS011;43568;43.180;-0.028;2022-08-14T06:07:34;3.03;;;2.88;;
57726;SDS011;43568;43.180;-0.028;2022-08-14T06:10:00;3.90;;;3.60;;
57726;SDS011;43568;43.180;-0.028;2022-08-14T06:12:26;3.83;;;3.53;;
57726;SDS011;43568;43.180;-0.028;2022-08-14T06:14:52;3.80;;;3.50;;
57726;SDS011;43568;43.180;-0.028;2022-08-14T06:17:18;3.78;;;3.40;;
57726;SDS011;43568;43.180;-0.028;2022-08-14T06:19:44;6.07;;;5.30;;
57726;SDS011;43568;43.180;-0.028;2022-08-14T06:22:10;3.08;;;2.75;;
57726;SDS011;43568;43.180;-0.028;2022-08-14T06:24:36;3.80;;;3.47;;
57726;SDS011;43568;43.180;-0.028;2022-08-14T06:27:02;3.95;;;3.50;;
57726;SDS011;43568;43.180;-0.028;2022-08-14T06:29:29;2.53;;;2.43;;
57726;SDS011;43568;43.180;-0.028;2022-08-14T06:31:55;3.47;;;3.28;;
57726;SDS011;43568;43.180;-0.028;2022-08-14T06:34:21;2.97;;;2.88;;
57726;SDS011;43568;43.180;-0.028;2022-08-14T06:36:47;2.88;;;2.67;;
57726;SDS011;43568;43.180;-0.028;2022-08-14T06:39:13;4.10;;;3.78;;
57726;SDS011;43568;43.180;-0.028;2022-08-14T06:41:39;2.95;;;2.75;;
57726;SDS011;43568;43.180;-0.028;2022-08-14T06:44:06;4.65;;;4.28;;
57726;SDS011;43568;43.180;-0.028;2022-08-14T06:46:32;3.40;;;3.20;;
57726;SDS011;43568;43.180;-0.028;2022-08-14T06:48:58;3.65;;;3.45;;
57726;SDS011;43568;43.180;-0.028;2022-08-14T06:51:24;3.13;;;2.95;;
57726;SDS011;43568;43.180;-0.028;2022-08-14T06:53:51;3.83;;;3.53;;
57726;SDS011;43568;43.180;-0.028;2022-08-14T06:56:17;3.42;;;3.25;;
57726;SDS011;43568;43.180;-0.028;2022-08-14T06:58:43;3.25;;;2.95;;
57726;SDS011;43568;43.180;-0.028;2022-08-14T07:01:09;2.65;;;2.55;;
57726;SDS011;43568;43.180;-0.028;2022-08-14T07:03:54;7.03;;;3.65;;
57726;SDS011;43568;43.180;-0.028;2022-08-14T07:06:39;2.47;;;2.38;;
57726;SDS011;43568;43.180;-0.028;2022-08-14T07:09:06;3.47;;;3.33;;
57726;SDS011;43568;43.180;-0.028;2022-08-14T07:11:34;3.00;;;2.90;;
57726;SDS011;43568;43.180;-0.028;2022-08-14T07:14:00;2.28;;;2.17;;
57726;SDS011;43568;43.180;-0.028;2022-08-14T07:16:26;3.30;;;3.13;;
57726;SDS011;43568;43.180;-0.028;2022-08-14T07:18:52;2.30;;;2.20;;
57726;SDS011;43568;43.180;-0.028;2022-08-14T07:21:18;3.42;;;3.13;;
57726;SDS011;43568;43.180;-0.028;2022-08-14T07:23:44;3.30;;;2.85;;
57726;SDS011;43568;43.180;-0.028;2022-08-14T07:26:10;2.40;;;2.20;;
57726;SDS011;43568;43.180;-0.028;2022-08-14T07:28:37;2.67;;;2.58;;
57726;SDS011;43568;43.180;-0.028;2022-08-14T07:31:05;2.97;;;2.77;;
57726;SDS011;43568;43.180;-0.028;2022-08-14T07:33:33;3.17;;;3.08;;
57726;SDS011;43568;43.180;-0.028;2022-08-14T07:36:00;3.10;;;2.90;;
57726;SDS011;43568;43.180;-0.028;2022-08-14T07:38:27;2.53;;;2.42;;
57726;SDS011;43568;43.180;-0.028;2022-08-14T07:40:53;5.10;;;4.47;;
57726;SDS011;43568;43.180;-0.028;2022-08-14T07:43:19;2.53;;;2.42;;
57726;SDS011;43568;43.180;-0.028;2022-08-14T07:45:46;3.00;;;2.90;;
57726;SDS011;43568;43.180;-0.028;2022-08-14T07:48:12;2.40;;;2.30;;
57726;SDS011;43568;43.180;-0.028;2022-08-14T07:50:39;2.60;;;2.50;;
57726;SDS011;43568;43.180;-0.028;2022-08-14T07:53:05;3.40;;;3.10;;
57726;SDS011;43568;43.180;-0.028;2022-08-14T07:55:31;7.95;;;3.72;;
57726;SDS011;43568;43.180;-0.028;2022-08-14T07:57:57;2.40;;;2.20;;
57726;SDS011;43568;43.180;-0.028;2022-08-14T08:00:24;1.95;;;1.85;;
57726;SDS011;43568;43.180;-0.028;2022-08-14T08:02:51;3.45;;;3.15;;
57726;SDS011;43568;43.180;-0.028;2022-08-14T08:07:45;2.20;;;2.10;;
57726;SDS011;43568;43.180;-0.028;2022-08-14T08:10:18;3.15;;;2.75;;
57726;SDS011;43568;43.180;-0.028;2022-08-14T08:12:57;3.63;;;3.40;;
57726;SDS011;43568;43.180;-0.028;2022-08-14T08:17:51;3.47;;;2.45;;
57726;SDS011;43568;43.180;-0.028;2022-08-14T08:20:18;3.13;;;2.95;;
57726;SDS011;43568;43.180;-0.028;2022-08-14T08:22:47;2.58;;;2.47;;
57726;SDS011;43568;43.180;-0.028;2022-08-14T08:25:15;4.90;;;4.13;;
57726;SDS011;43568;43.180;-0.028;2022-08-14T08:27:41;2.58;;;2.47;;
57726;SDS011;43568;43.180;-0.028;2022-08-14T08:30:08;2.10;;;2.10;;
57726;SDS011;43568;43.180;-0.028;2022-08-14T08:32:38;2.35;;;2.25;;
57726;SDS011;43568;43.180;-0.028;2022-08-14T08:35:08;2.60;;;2.45;;
57726;SDS011;43568;43.180;-0.028;2022-08-14T08:37:34;3.20;;;3.00;;
57726;SDS011;43568;43.180;-0.028;2022-08-14T08:40:02;3.20;;;3.00;;
57726;SDS011;43568;43.180;-0.028;2022-08-14T08:42:28;2.45;;;2.35;;
57726;SDS011;43568;43.180;-0.028;2022-08-14T08:44:54;2.47;;;2.38;;
57726;SDS011;43568;43.180;-0.028;2022-08-14T08:47:20;2.72;;;2.63;;
57726;SDS011;43568;43.180;-0.028;2022-08-14T08:49:46;1.98;;;1.88;;
57726;SDS011;43568;43.180;-0.028;2022-08-14T08:52:12;3.33;;;3.03;;
57726;SDS011;43568;43.180;-0.028;2022-08-14T08:54:38;3.53;;;3.28;;
57726;SDS011;43568;43.180;-0.028;2022-08-14T08:57:11;2.67;;;2.58;;
57726;SDS011;43568;43.180;-0.028;2022-08-14T08:59:37;3.15;;;2.97;;
57726;SDS011;43568;43.180;-0.028;2022-08-14T09:02:04;2.42;;;2.33;;
57726;SDS011;43568;43.180;-0.028;2022-08-14T09:04:35;3.45;;;3.25;;
57726;SDS011;43568;43.180;-0.028;2022-08-14T09:07:05;2.85;;;2.65;;
57726;SDS011;43568;43.180;-0.028;2022-08-14T09:09:31;2.45;;;2.25;;
57726;SDS011;43568;43.180;-0.028;2022-08-14T09:11:59;3.72;;;2.70;;
57726;SDS011;43568;43.180;-0.028;2022-08-14T09:14:26;4.38;;;2.65;;
57726;SDS011;43568;43.180;-0.028;2022-08-14T09:16:53;1.90;;;1.80;;
57726;SDS011;43568;43.180;-0.028;2022-08-14T09:19:20;1.83;;;1.83;;
57726;SDS011;43568;43.180;-0.028;2022-08-14T09:21:46;2.50;;;2.40;;
57726;SDS011;43568;43.180;-0.028;2022-08-14T09:24:13;2.20;;;2.10;;
57726;SDS011;43568;43.180;-0.028;2022-08-14T09:26:39;2.78;;;2.60;;
57726;SDS011;43568;43.180;-0.028;2022-08-14T09:29:06;2.55;;;2.35;;
57726;SDS011;43568;43.180;-0.028;2022-08-14T09:31:33;3.28;;;2.38;;
57726;SDS011;43568;43.180;-0.028;2022-08-14T09:34:09;2.20;;;2.10;;
57726;SDS011;43568;43.180;-0.028;2022-08-14T09:44:32;2.55;;;2.42;;
57726;SDS011;43568;43.180;-0.028;2022-08-14T09:47:04;2.80;;;2.60;;
57726;SDS011;43568;43.180;-0.028;2022-08-14T09:49:31;2.80;;;2.65;;
57726;SDS011;43568;43.180;-0.028;2022-08-14T09:52:05;3.45;;;3.25;;
57726;SDS011;43568;43.180;-0.028;2022-08-14T09:54:38;2.97;;;2.78;;
57726;SDS011;43568;43.180;-0.028;2022-08-14T09:57:05;2.30;;;2.22;;
57726;SDS011;43568;43.180;-0.028;2022-08-14T09:59:44;2.80;;;2.58;;
57726;SDS011;43568;43.180;-0.028;2022-08-14T10:04:45;2.55;;;2.25;;
57726;SDS011;43568;43.180;-0.028;2022-08-14T10:07:12;2.80;;;2.63;;
57726;SDS011;43568;43.180;-0.028;2022-08-14T10:09:46;2.22;;;2.13;;
57726;SDS011;43568;43.180;-0.028;2022-08-14T10:12:12;2.25;;;2.15;;
57726;SDS011;43568;43.180;-0.028;2022-08-14T10:14:38;2.05;;;2.00;;
57726;SDS011;43568;43.180;-0.028;2022-08-14T10:17:05;2.58;;;1.75;;
57726;SDS011;43568;43.180;-0.028;2022-08-14T10:19:31;2.05;;;1.95;;
57726;SDS011;43568;43.180;-0.028;2022-08-14T10:22:03;2.33;;;2.10;;
57726;SDS011;43568;43.180;-0.028;2022-08-14T10:24:39;1.90;;;1.83;;
57726;SDS011;43568;43.180;-0.028;2022-08-14T10:27:16;2.92;;;2.72;;
57726;SDS011;43568;43.180;-0.028;2022-08-14T10:29:47;1.83;;;1.77;;
57726;SDS011;43568;43.180;-0.028;2022-08-14T10:32:18;1.50;;;1.50;;
57726;SDS011;43568;43.180;-0.028;2022-08-14T10:34:47;1.90;;;1.80;;
57726;SDS011;43568;43.180;-0.028;2022-08-14T10:37:14;2.08;;;1.98;;
57726;SDS011;43568;43.180;-0.028;2022-08-14T10:39:41;3.17;;;2.97;;
57726;SDS011;43568;43.180;-0.028;2022-08-14T10:42:11;2.60;;;2.50;;
57726;SDS011;43568;43.180;-0.028;2022-08-14T10:44:39;2.63;;;2.42;;
57726;SDS011;43568;43.180;-0.028;2022-08-14T10:47:06;1.80;;;1.80;;
57726;SDS011;43568;43.180;-0.028;2022-08-14T10:49:35;2.10;;;2.03;;
57726;SDS011;43568;43.180;-0.028;2022-08-14T10:52:05;3.80;;;2.25;;
57726;SDS011;43568;43.180;-0.028;2022-08-14T10:54:37;2.15;;;2.05;;
57726;SDS011;43568;43.180;-0.028;2022-08-14T10:57:17;1.88;;;1.77;;
57726;SDS011;43568;43.180;-0.028;2022-08-14T10:59:45;2.42;;;2.30;;
57726;SDS011;43568;43.180;-0.028;2022-08-14T11:07:26;1.50;;;1.50;;
57726;SDS011;43568;43.180;-0.028;2022-08-14T11:09:55;2.88;;;2.67;;
57726;SDS011;43568;43.180;-0.028;2022-08-14T11:12:23;3.15;;;2.85;;
57726;SDS011;43568;43.180;-0.028;2022-08-14T11:14:51;1.55;;;1.55;;
57726;SDS011;43568;43.180;-0.028;2022-08-14T11:17:17;2.15;;;2.05;;
57726;SDS011;43568;43.180;-0.028;2022-08-14T11:19:45;1.58;;;1.50;;
57726;SDS011;43568;43.180;-0.028;2022-08-14T11:22:11;2.20;;;2.10;;
57726;SDS011;43568;43.180;-0.028;2022-08-14T11:24:39;2.60;;;2.50;;
57726;SDS011;43568;43.180;-0.028;2022-08-14T11:27:07;2.67;;;2.53;;
57726;SDS011;43568;43.180;-0.028;2022-08-14T11:29:35;2.28;;;2.17;;
57726;SDS011;43568;43.180;-0.028;2022-08-14T11:32:03;2.40;;;2.20;;
57726;SDS011;43568;43.180;-0.028;2022-08-14T11:34:35;2.03;;;1.88;;
57726;SDS011;43568;43.180;-0.028;2022-08-14T11:37:10;1.40;;;1.40;;
57726;SDS011;43568;43.180;-0.028;2022-08-14T11:39:36;1.77;;;1.77;;
57726;SDS011;43568;43.180;-0.028;2022-08-14T11:42:03;1.92;;;1.83;;
57726;SDS011;43568;43.180;-0.028;2022-08-14T11:44:30;1.40;;;1.40;;
57726;SDS011;43568;43.180;-0.028;2022-08-14T11:46:57;1.40;;;1.40;;
57726;SDS011;43568;43.180;-0.028;2022-08-14T11:49:26;1.73;;;1.73;;
57726;SDS011;43568;43.180;-0.028;2022-08-14T11:51:54;2.05;;;1.95;;
57726;SDS011;43568;43.180;-0.028;2022-08-14T11:54:21;1.80;;;1.77;;
57726;SDS011;43568;43.180;-0.028;2022-08-14T11:56:47;1.33;;;1.33;;
57726;SDS011;43568;43.180;-0.028;2022-08-14T12:01:42;1.83;;;1.73;;
57726;SDS011;43568;43.180;-0.028;2022-08-14T12:09:12;1.65;;;1.55;;
57726;SDS011;43568;43.180;-0.028;2022-08-14T12:11:38;2.13;;;2.03;;
57726;SDS011;43568;43.180;-0.028;2022-08-14T12:14:08;2.05;;;1.95;;
57726;SDS011;43568;43.180;-0.028;2022-08-14T12:16:34;4.63;;;2.45;;
57726;SDS011;43568;43.180;-0.028;2022-08-14T12:19:00;2.13;;;2.03;;
57726;SDS011;43568;43.180;-0.028;2022-08-14T12:21:26;2.05;;;1.95;;
57726;SDS011;43568;43.180;-0.028;2022-08-14T12:24:01;2.42;;;2.33;;
57726;SDS011;43568;43.180;-0.028;2022-08-14T12:26:28;1.67;;;1.67;;
57726;SDS011;43568;43.180;-0.028;2022-08-14T12:29:07;1.95;;;1.85;;
57726;SDS011;43568;43.180;-0.028;2022-08-14T12:31:34;2.10;;;2.00;;
57726;SDS011;43568;43.180;-0.028;2022-08-14T12:34:01;1.73;;;1.63;;
57726;SDS011;43568;43.180;-0.028;2022-08-14T12:36:28;2.28;;;2.17;;
57726;SDS011;43568;43.180;-0.028;2022-08-14T12:39:02;1.50;;;1.50;;
57726;SDS011;43568;43.180;-0.028;2022-08-14T12:41:29;2.00;;;1.90;;
57726;SDS011;43568;43.180;-0.028;2022-08-14T12:43:59;1.52;;;1.52;;
57726;SDS011;43568;43.180;-0.028;2022-08-14T12:48:53;2.13;;;2.00;;
57726;SDS011;43568;43.180;-0.028;2022-08-14T12:51:20;2.05;;;1.88;;
57726;SDS011;43568;43.180;-0.028;2022-08-14T12:53:47;2.28;;;2.17;;
57726;SDS011;43568;43.180;-0.028;2022-08-14T12:56:18;1.90;;;1.80;;
57726;SDS011;43568;43.180;-0.028;2022-08-14T12:58:46;2.10;;;2.00;;
57726;SDS011;43568;43.180;-0.028;2022-08-14T13:01:17;2.53;;;1.98;;
57726;SDS011;43568;43.180;-0.028;2022-08-14T13:03:44;1.40;;;1.40;;
57726;SDS011;43568;43.180;-0.028;2022-08-14T13:08:38;1.90;;;1.80;;
57726;SDS011;43568;43.180;-0.028;2022-08-14T13:11:09;1.60;;;1.60;;
57726;SDS011;43568;43.180;-0.028;2022-08-14T13:13:36;1.98;;;1.88;;
57726;SDS011;43568;43.180;-0.028;2022-08-14T13:16:03;1.67;;;1.67;;
57726;SDS011;43568;43.180;-0.028;2022-08-14T13:20:58;1.90;;;1.80;;
57726;SDS011;43568;43.180;-0.028;2022-08-14T13:23:25;1.80;;;1.75;;
57726;SDS011;43568;43.180;-0.028;2022-08-14T13:25:54;1.92;;;1.92;;
57726;SDS011;43568;43.180;-0.028;2022-08-14T13:28:22;1.52;;;1.52;;
57726;SDS011;43568;43.180;-0.028;2022-08-14T13:30:51;1.40;;;1.40;;
57726;SDS011;43568;43.180;-0.028;2022-08-14T13:33:17;2.28;;;2.05;;
57726;SDS011;43568;43.180;-0.028;2022-08-14T13:38:12;1.40;;;1.40;;
57726;SDS011;43568;43.180;-0.028;2022-08-14T13:40:43;2.90;;;2.05;;
57726;SDS011;43568;43.180;-0.028;2022-08-14T13:43:11;1.58;;;1.58;;
57726;SDS011;43568;43.180;-0.028;2022-08-14T13:45:37;3.00;;;2.03;;
57726;SDS011;43568;43.180;-0.028;2022-08-14T13:48:03;2.10;;;2.00;;
57726;SDS011;43568;43.180;-0.028;2022-08-14T13:50:30;2.77;;;2.63;;
57726;SDS011;43568;43.180;-0.028;2022-08-14T13:52:56;1.70;;;1.60;;
57726;SDS011;43568;43.180;-0.028;2022-08-14T13:55:26;1.58;;;1.58;;
57726;SDS011;43568;43.180;-0.028;2022-08-14T13:57:54;1.55;;;1.48;;
57726;SDS011;43568;43.180;-0.028;2022-08-14T14:00:21;1.30;;;1.30;;
57726;SDS011;43568;43.180;-0.028;2022-08-14T14:02:48;1.30;;;1.30;;
57726;SDS011;43568;43.180;-0.028;2022-08-14T14:05:16;2.28;;;1.33;;
57726;SDS011;43568;43.180;-0.028;2022-08-14T14:07:46;1.38;;;1.38;;
57726;SDS011;43568;43.180;-0.028;2022-08-14T14:10:13;2.90;;;2.42;;
57726;SDS011;43568;43.180;-0.028;2022-08-14T14:12:39;4.10;;;3.78;;
57726;SDS011;43568;43.180;-0.028;2022-08-14T14:15:05;1.20;;;1.20;;
57726;SDS011;43568;43.180;-0.028;2022-08-14T14:17:35;1.53;;;1.53;;
57726;SDS011;43568;43.180;-0.028;2022-08-14T14:20:11;1.33;;;1.33;;
57726;SDS011;43568;43.180;-0.028;2022-08-14T14:22:40;1.77;;;1.60;;
57726;SDS011;43568;43.180;-0.028;2022-08-14T14:25:07;1.58;;;1.58;;
57726;SDS011;43568;43.180;-0.028;2022-08-14T14:27:33;1.52;;;1.42;;
57726;SDS011;43568;43.180;-0.028;2022-08-14T14:30:01;1.73;;;1.63;;
57726;SDS011;43568;43.180;-0.028;2022-08-14T14:32:29;2.38;;;1.63;;
57726;SDS011;43568;43.180;-0.028;2022-08-14T14:34:58;2.03;;;2.00;;
57726;SDS011;43568;43.180;-0.028;2022-08-14T14:37:27;1.20;;;1.20;;
57726;SDS011;43568;43.180;-0.028;2022-08-14T14:39:54;1.65;;;1.65;;
57726;SDS011;43568;43.180;-0.028;2022-08-14T14:42:23;1.52;;;1.52;;
57726;SDS011;43568;43.180;-0.028;2022-08-14T14:44:50;1.65;;;1.65;;
57726;SDS011;43568;43.180;-0.028;2022-08-14T14:47:19;1.30;;;1.30;;
57726;SDS011;43568;43.180;-0.028;2022-08-14T14:49:47;2.10;;;1.73;;
57726;SDS011;43568;43.180;-0.028;2022-08-14T14:54:40;1.83;;;1.70;;
57726;SDS011;43568;43.180;-0.028;2022-08-14T14:57:08;2.05;;;1.80;;
57726;SDS011;43568;43.180;-0.028;2022-08-14T14:59:38;1.70;;;1.70;;
57726;SDS011;43568;43.180;-0.028;2022-08-14T15:02:05;1.30;;;1.30;;
57726;SDS011;43568;43.180;-0.028;2022-08-14T15:06:57;3.08;;;1.85;;
57726;SDS011;43568;43.180;-0.028;2022-08-14T15:09:24;2.30;;;2.20;;
57726;SDS011;43568;43.180;-0.028;2022-08-14T15:11:52;2.67;;;2.47;;
57726;SDS011;43568;43.180;-0.028;2022-08-14T15:14:27;2.28;;;2.17;;
57726;SDS011;43568;43.180;-0.028;2022-08-14T15:16:54;1.30;;;1.30;;
57726;SDS011;43568;43.180;-0.028;2022-08-14T15:19:21;1.23;;;1.23;;
57726;SDS011;43568;43.180;-0.028;2022-08-14T15:21:47;1.40;;;1.40;;
57726;SDS011;43568;43.180;-0.028;2022-08-14T15:24:15;1.58;;;1.58;;
57726;SDS011;43568;43.180;-0.028;2022-08-14T15:26:41;1.65;;;1.63;;
57726;SDS011;43568;43.180;-0.028;2022-08-14T15:29:09;2.20;;;2.10;;
57726;SDS011;43568;43.180;-0.028;2022-08-14T15:31:39;1.17;;;1.17;;